Time;durP1;ratioP1;P1;durP2;ratioP2;P2;SDS_P1;SDS_P2;PMS_P1;PMS_P2;Temp;Humidity;BMP_temperature;BMP_pressure;BME280_temperature;BME280_humidity;BME280_pressure;Samples;Min_cycle;Max_cycle;Signal;HPM_P1;HPM_P2
2022/08/06 00:01:01;;;;;;;1999.90;999.90;;;11.20;99.90;;;;;;5134975;27;20042;-75
2022/08/06 00:03:27;;;;;;;1999.90;999.90;;;11.10;99.90;;;;;;5142608;27;20030;-74
2022/08/06 00:05:53;;;;;;;1999.90;999.90;;;11.00;99.90;;;;;;5114132;27;20038;-74
2022/08/06 00:08:18;;;;;;;1999.90;999.90;;;11.00;99.90;;;;;;5140420;27;20045;-74
2022/08/06 00:10:44;;;;;;;1999.90;999.90;;;10.90;99.90;;;;;;5134989;27;20475;-74
2022/08/06 00:13:10;;;;;;;1999.90;999.90;;;10.90;99.90;;;;;;5119147;27;20046;-74
2022/08/06 00:15:36;;;;;;;1999.90;999.90;;;10.80;99.90;;;;;;5140323;27;20066;-74
2022/08/06 00:18:01;;;;;;;1999.90;999.90;;;10.80;99.90;;;;;;5142217;27;20050;-74
2022/08/06 00:20:27;;;;;;;1999.90;999.90;;;10.70;99.90;;;;;;5117305;27;20129;-75
2022/08/06 00:22:53;;;;;;;1999.90;999.90;;;10.70;99.90;;;;;;5111691;27;20441;-74
2022/08/06 00:25:18;;;;;;;1999.90;999.90;;;10.70;99.90;;;;;;5134875;27;20102;-74
2022/08/06 00:27:44;;;;;;;1999.90;999.90;;;10.70;99.90;;;;;;5132723;27;20487;-74
2022/08/06 00:30:10;;;;;;;1999.90;999.90;;;10.60;99.90;;;;;;5098240;27;20081;-75
2022/08/06 00:32:36;;;;;;;1999.90;999.90;;;10.70;99.90;;;;;;5127169;27;20110;-75
2022/08/06 00:35:03;;;;;;;1999.90;999.90;;;10.70;99.90;;;;;;5127963;27;20454;-74
2022/08/06 00:37:31;;;;;;;1999.90;999.90;;;10.70;99.90;;;;;;5130054;27;20043;-74
2022/08/06 00:40:01;;;;;;;1999.90;999.90;;;10.70;99.90;;;;;;5110110;27;20047;-74
2022/08/06 00:42:27;;;;;;;1999.90;999.90;;;10.70;99.90;;;;;;5130329;27;20035;-74
2022/08/06 00:44:53;;;;;;;1999.90;999.90;;;10.60;99.90;;;;;;5130114;27;20046;-74
2022/08/06 00:47:20;;;;;;;1999.90;999.90;;;10.60;99.90;;;;;;5130117;27;20394;-73
2022/08/06 00:49:45;;;;;;;1999.90;999.90;;;10.50;99.90;;;;;;5110657;27;20043;-73
2022/08/06 00:52:11;;;;;;;1999.90;999.90;;;10.50;99.90;;;;;;5111750;27;20068;-74
2022/08/06 00:54:37;;;;;;;1999.90;999.90;;;10.40;99.90;;;;;;5129614;27;20088;-73
2022/08/06 00:57:04;;;;;;;1999.90;999.90;;;10.40;99.90;;;;;;5129364;27;20034;-73
2022/08/06 00:59:30;;;;;;;1999.90;999.90;;;10.30;99.90;;;;;;5117397;27;20050;-74
2022/08/06 01:01:55;;;;;;;1999.90;999.90;;;10.30;99.90;;;;;;5132311;27;20035;-74
2022/08/06 01:04:21;;;;;;;1999.90;999.90;;;10.20;99.90;;;;;;5124872;27;20047;-74
2022/08/06 01:06:47;;;;;;;1999.90;999.90;;;10.20;99.90;;;;;;5131529;27;20054;-73
2022/08/06 01:09:12;;;;;;;1999.90;999.90;;;10.10;99.90;;;;;;5082974;27;20043;-74
2022/08/06 01:11:38;;;;;;;1999.90;999.90;;;10.10;99.90;;;;;;5132038;27;20114;-74
2022/08/06 01:14:05;;;;;;;1999.90;999.90;;;10.00;99.90;;;;;;5096450;27;20042;-74
2022/08/06 01:16:47;;;;;;;1999.90;999.90;;;10.00;99.90;;;;;;5140494;27;20074;-74
2022/08/06 01:19:25;;;;;;;1999.90;999.90;;;10.00;99.90;;;;;;5136102;27;20402;-74
2022/08/06 01:22:35;;;;;;;1999.90;999.90;;;9.90;99.90;;;;;;5141256;27;20101;-74
2022/08/06 01:25:19;;;;;;;1999.90;999.90;;;9.90;99.90;;;;;;5112655;27;20047;-74
2022/08/06 01:28:08;;;;;;;1999.90;999.90;;;9.80;99.90;;;;;;5127978;27;20031;-74
2022/08/06 01:30:44;;;;;;;1999.90;999.90;;;9.80;99.90;;;;;;5127313;27;20110;-74
2022/08/06 01:33:16;;;;;;;1999.90;999.90;;;9.70;99.90;;;;;;5121819;27;20603;-74
2022/08/06 01:35:47;;;;;;;1999.90;999.90;;;9.70;99.90;;;;;;5129291;27;20110;-74
2022/08/06 01:38:26;;;;;;;1999.90;999.90;;;9.60;99.90;;;;;;5129146;27;20486;-74
2022/08/06 01:40:53;;;;;;;1999.90;999.90;;;9.60;99.90;;;;;;5120647;27;20150;-74
2022/08/06 01:43:20;;;;;;;1999.90;999.90;;;9.50;99.90;;;;;;5135993;27;20039;-74
2022/08/06 01:45:48;;;;;;;1999.90;999.90;;;9.50;99.90;;;;;;5123136;28;20106;-74
2022/08/06 01:48:17;;;;;;;1999.90;999.90;;;9.50;99.90;;;;;;5115870;27;20480;-74
2022/08/06 01:50:48;;;;;;;1999.90;999.90;;;9.40;99.90;;;;;;5102708;27;20475;-74
2022/08/06 01:53:18;;;;;;;1999.90;999.90;;;9.30;99.90;;;;;;5127584;27;20146;-74
2022/08/06 01:55:48;;;;;;;1999.90;999.90;;;9.30;99.90;;;;;;5129207;27;20053;-74
2022/08/06 01:58:20;;;;;;;1999.90;999.90;;;9.30;99.90;;;;;;5113367;27;20042;-74
2022/08/06 02:00:51;;;;;;;1999.90;999.90;;;9.20;99.90;;;;;;5129088;27;20047;-74
2022/08/06 02:03:22;;;;;;;1999.90;999.90;;;9.20;99.90;;;;;;5126351;27;20043;-74
2022/08/06 02:05:50;;;;;;;1999.90;999.90;;;9.20;99.90;;;;;;5128981;27;20110;-74
2022/08/06 02:08:18;;;;;;;1999.90;999.90;;;9.20;99.90;;;;;;5110577;27;20049;-74
2022/08/06 02:10:45;;;;;;;1999.90;999.90;;;9.10;99.90;;;;;;5129151;27;20082;-74
2022/08/06 02:13:15;;;;;;;1999.90;999.90;;;9.10;99.90;;;;;;5094004;27;20047;-74
2022/08/06 02:15:43;;;;;;;1999.90;999.90;;;9.10;99.90;;;;;;5111258;27;20076;-74
2022/08/06 02:18:10;;;;;;;1999.90;999.90;;;9.00;99.90;;;;;;5133675;27;20433;-74
2022/08/06 02:20:43;;;;;;;1999.90;999.90;;;9.00;99.90;;;;;;5120910;27;20038;-74
2022/08/06 02:23:14;;;;;;;1999.90;999.90;;;9.00;99.90;;;;;;5132841;27;20091;-74
2022/08/06 02:25:41;;;;;;;1999.90;999.90;;;9.00;99.90;;;;;;5120523;27;20035;-74
2022/08/06 02:28:10;;;;;;;1999.90;999.90;;;9.00;99.90;;;;;;5115655;27;20046;-74
2022/08/06 02:30:40;;;;;;;1999.90;999.90;;;8.90;99.90;;;;;;5097142;27;20039;-74
2022/08/06 02:33:07;;;;;;;1999.90;999.90;;;8.80;99.90;;;;;;5127395;27;20042;-74
2022/08/06 02:35:44;;;;;;;1999.90;999.90;;;8.90;99.90;;;;;;5142967;27;20041;-74
2022/08/06 02:38:21;;;;;;;1999.90;999.90;;;8.90;99.90;;;;;;5125312;27;20042;-74
2022/08/06 02:40:53;;;;;;;1999.90;999.90;;;8.80;99.90;;;;;;5131178;27;20055;-74
2022/08/06 02:43:27;;;;;;;1999.90;999.90;;;8.80;99.90;;;;;;5133647;27;20091;-74
2022/08/06 02:46:03;;;;;;;1999.90;999.90;;;8.70;99.90;;;;;;5136039;27;20114;-74
2022/08/06 02:48:47;;;;;;;1999.90;999.90;;;8.70;99.90;;;;;;5138753;27;20672;-74
2022/08/06 02:51:18;;;;;;;1999.90;999.90;;;8.60;99.90;;;;;;5092605;27;20134;-74
2022/08/06 02:53:57;;;;;;;1999.90;999.90;;;8.60;99.90;;;;;;5108775;27;20092;-74
2022/08/06 02:56:25;;;;;;;1999.90;999.90;;;8.60;99.90;;;;;;5129098;27;20088;-74
2022/08/06 02:58:53;;;;;;;1999.90;999.90;;;8.50;99.90;;;;;;5132884;27;20054;-74
2022/08/06 03:01:23;;;;;;;1999.90;999.90;;;8.50;99.90;;;;;;5132476;27;20213;-74
2022/08/06 03:03:53;;;;;;;1999.90;999.90;;;8.50;99.90;;;;;;5132120;27;20035;-74
2022/08/06 03:06:22;;;;;;;1999.90;999.90;;;8.50;99.90;;;;;;5137960;27;20127;-74
2022/08/06 03:08:52;;;;;;;1999.90;999.90;;;8.40;99.90;;;;;;5125313;27;20039;-74
2022/08/06 03:11:21;;;;;;;1999.90;999.90;;;8.40;99.90;;;;;;5109527;27;20048;-74
2022/08/06 03:13:48;;;;;;;1999.90;999.90;;;8.30;99.90;;;;;;5131725;27;20483;-74
2022/08/06 03:16:15;;;;;;;1999.90;999.90;;;8.30;99.90;;;;;;5131221;27;20461;-74
2022/08/06 03:18:43;;;;;;;1999.90;999.90;;;8.30;99.90;;;;;;5125982;27;20063;-74
2022/08/06 03:21:10;;;;;;;1999.90;999.90;;;8.30;99.90;;;;;;5106081;27;20046;-74
2022/08/06 03:23:37;;;;;;;1999.90;999.90;;;8.30;99.90;;;;;;5113237;27;20077;-74
2022/08/06 03:26:04;;;;;;;1999.90;999.90;;;8.30;99.90;;;;;;5133745;27;20052;-74
2022/08/06 03:28:33;;;;;;;1999.90;999.90;;;8.20;99.90;;;;;;5136440;27;20388;-74
2022/08/06 03:31:00;;;;;;;1999.90;999.90;;;8.20;99.90;;;;;;5129811;27;20079;-74
2022/08/06 03:33:26;;;;;;;1999.90;999.90;;;8.20;99.90;;;;;;5113542;27;20099;-74
2022/08/06 03:35:53;;;;;;;1999.90;999.90;;;8.10;99.90;;;;;;5136034;27;20031;-74
2022/08/06 03:38:21;;;;;;;1999.90;999.90;;;8.10;99.90;;;;;;5124818;27;20049;-74
2022/08/06 03:40:49;;;;;;;1999.90;999.90;;;8.10;99.90;;;;;;5131145;27;20050;-74
2022/08/06 03:43:14;;;;;;;1999.90;999.90;;;8.10;99.90;;;;;;5132522;27;20035;-74
2022/08/06 03:45:48;;;;;;;1999.90;999.90;;;8.10;99.90;;;;;;5130187;27;20506;-74
2022/08/06 03:48:20;;;;;;;1999.90;999.90;;;8.10;99.90;;;;;;5115214;27;20107;-74
2022/08/06 03:50:48;;;;;;;1999.90;999.90;;;8.10;99.90;;;;;;5095034;27;20127;-74
2022/08/06 03:53:20;;;;;;;1999.90;999.90;;;8.10;99.90;;;;;;5128910;27;20039;-74
2022/08/06 03:55:47;;;;;;;1999.90;999.90;;;8.10;99.90;;;;;;5104627;27;20039;-74
2022/08/06 03:58:14;;;;;;;1999.90;999.90;;;8.10;99.90;;;;;;5113592;27;20062;-74
2022/08/06 04:00:53;;;;;;;1999.90;999.90;;;8.10;99.90;;;;;;5130917;27;20039;-74
2022/08/06 04:03:20;;;;;;;1999.90;999.90;;;8.00;99.90;;;;;;5137383;27;20043;-74
2022/08/06 04:05:47;;;;;;;1999.90;999.90;;;8.10;99.90;;;;;;5131447;27;20110;-74
2022/08/06 04:08:13;;;;;;;1999.90;999.90;;;8.10;99.90;;;;;;5122462;27;20554;-74
2022/08/06 04:10:44;;;;;;;1999.90;999.90;;;8.10;99.90;;;;;;5095710;27;20122;-74
2022/08/06 04:13:12;;;;;;;1999.90;999.90;;;8.10;99.90;;;;;;5132188;27;20363;-74
2022/08/06 04:15:38;;;;;;;1999.90;999.90;;;8.10;99.90;;;;;;5106906;27;20407;-74
2022/08/06 04:18:09;;;;;;;1999.90;999.90;;;8.10;99.90;;;;;;5130644;27;20458;-74
2022/08/06 04:20:37;;;;;;;1999.90;999.90;;;8.10;99.90;;;;;;5139340;27;20066;-74
2022/08/06 04:23:03;;;;;;;1999.90;999.90;;;8.20;99.90;;;;;;5093824;27;20051;-74
2022/08/06 04:25:34;;;;;;;1999.90;999.90;;;8.30;99.90;;;;;;5097475;27;20045;-74
2022/08/06 04:28:01;;;;;;;1999.90;999.90;;;8.30;99.90;;;;;;5130525;27;20063;-74
2022/08/06 04:30:28;;;;;;;1999.90;999.90;;;8.30;99.90;;;;;;5127308;27;20403;-74
2022/08/06 04:32:54;;;;;;;1999.90;999.90;;;8.30;99.90;;;;;;5110324;27;20085;-74
2022/08/06 04:35:21;;;;;;;1999.90;999.90;;;8.40;99.90;;;;;;5131254;27;20035;-74
2022/08/06 04:37:48;;;;;;;1999.90;999.90;;;8.40;99.90;;;;;;5120871;27;20042;-74
2022/08/06 04:40:14;;;;;;;1999.90;999.90;;;8.40;99.90;;;;;;5126850;27;20399;-74
2022/08/06 04:42:40;;;;;;;1999.90;999.90;;;8.50;99.90;;;;;;5131657;27;20388;-74
2022/08/06 04:45:09;;;;;;;1999.90;999.90;;;8.60;99.90;;;;;;5112955;27;20041;-74
2022/08/06 04:47:38;;;;;;;1999.90;999.90;;;8.60;99.90;;;;;;5126176;27;20039;-74
2022/08/06 04:50:04;;;;;;;1999.90;999.90;;;8.60;99.90;;;;;;5137679;27;20050;-74
2022/08/06 04:52:30;;;;;;;1999.90;999.90;;;8.60;99.90;;;;;;5111720;27;20047;-74
2022/08/06 04:54:56;;;;;;;1999.90;999.90;;;8.60;99.90;;;;;;5135159;27;20083;-74
2022/08/06 04:57:22;;;;;;;1999.90;999.90;;;8.60;99.90;;;;;;5130363;27;20027;-74
2022/08/06 04:59:47;;;;;;;1999.90;999.90;;;8.60;99.90;;;;;;5125990;27;20407;-74
2022/08/06 05:02:13;;;;;;;1999.90;999.90;;;8.60;99.90;;;;;;5129203;27;20487;-74
2022/08/06 05:04:40;;;;;;;1999.90;999.90;;;8.60;99.90;;;;;;5112630;27;20039;-74
2022/08/06 05:07:19;;;;;;;1999.90;999.90;;;8.70;99.90;;;;;;5120579;27;20087;-74
2022/08/06 05:09:46;;;;;;;1999.90;999.90;;;8.70;99.90;;;;;;5130108;27;20042;-74
2022/08/06 05:12:45;;;;;;;1999.90;999.90;;;8.90;99.90;;;;;;5122752;27;20039;-74
2022/08/06 05:15:22;;;;;;;1999.90;999.90;;;9.10;99.90;;;;;;5138037;27;20465;-74
2022/08/06 05:18:10;;;;;;;1999.90;999.90;;;9.30;99.90;;;;;;5135204;27;20039;-74
2022/08/06 05:20:39;;;;;;;1999.90;999.90;;;9.50;99.90;;;;;;5110736;27;20591;-74
2022/08/06 05:23:27;;;;;;;1999.90;999.90;;;9.70;99.90;;;;;;5138694;27;20578;-74
2022/08/06 05:25:54;;;;;;;1999.90;999.90;;;9.90;99.90;;;;;;5097987;27;20062;-74
2022/08/06 05:28:19;;;;;;;1999.90;999.90;;;10.10;99.90;;;;;;5110974;28;20043;-74
2022/08/06 05:30:50;;;;;;;1999.90;999.90;;;10.40;99.90;;;;;;5133812;27;20034;-74
2022/08/06 05:33:27;;;;;;;1999.90;999.90;;;10.60;99.90;;;;;;5092317;28;20468;-74
2022/08/06 05:35:53;;;;;;;1999.90;999.90;;;10.80;99.90;;;;;;5104910;28;20047;-74
2022/08/06 05:38:20;;;;;;;1999.90;999.90;;;10.80;99.90;;;;;;5105909;28;20046;-74
2022/08/06 05:40:45;;;;;;;1999.90;999.90;;;10.90;99.90;;;;;;5097241;28;20490;-74
2022/08/06 05:43:11;;;;;;;1999.90;999.90;;;11.10;99.90;;;;;;5110726;27;20045;-74
2022/08/06 05:45:40;;;;;;;1999.90;999.90;;;11.20;99.90;;;;;;5111923;27;20137;-74
2022/08/06 05:48:08;;;;;;;1999.90;999.90;;;11.50;99.90;;;;;;5113734;27;20054;-75
2022/08/06 05:50:40;;;;;;;1999.90;999.90;;;11.80;99.90;;;;;;5121153;27;20070;-74
2022/08/06 05:53:26;;;;;;;;;;;12.40;99.90;;;;;;5109051;27;20058;-75
2022/08/06 05:55:56;;;;;;;1999.90;999.90;;;13.10;99.90;;;;;;5117113;27;19992;-75
2022/08/06 05:58:33;;;;;;;1999.90;999.90;;;13.90;99.90;;;;;;5131714;27;20143;-74
2022/08/06 06:01:01;;;;;;;1999.90;999.90;;;14.80;99.90;;;;;;5128876;27;20070;-74
2022/08/06 06:03:28;;;;;;;1999.90;999.90;;;15.30;99.90;;;;;;5132599;27;20368;-75
2022/08/06 06:05:55;;;;;;;1999.90;999.90;;;16.30;99.90;;;;;;5140574;27;20525;-74
2022/08/06 06:08:21;;;;;;;1999.90;999.90;;;17.00;99.90;;;;;;5129783;27;20031;-74
2022/08/06 06:10:47;;;;;;;1999.90;999.90;;;16.90;99.90;;;;;;5130893;27;20115;-74
2022/08/06 06:13:15;;;;;;;1999.90;999.90;;;16.50;99.90;;;;;;5130153;27;20044;-74
2022/08/06 06:15:48;;;;;;;1999.90;999.90;;;16.30;99.90;;;;;;5132036;27;20042;-74
2022/08/06 06:18:32;;;;;;;1999.90;999.90;;;16.20;99.90;;;;;;5135321;27;20039;-73
2022/08/06 06:21:03;;;;;;;1999.90;999.90;;;16.20;99.90;;;;;;5140404;27;20039;-74
2022/08/06 06:23:36;;;;;;;1999.90;999.90;;;16.10;99.90;;;;;;5140700;27;20046;-74
2022/08/06 06:26:20;;;;;;;1999.90;999.90;;;16.20;99.90;;;;;;5113561;27;20039;-74
2022/08/06 06:29:02;;;;;;;1999.90;999.90;;;16.20;99.90;;;;;;5137085;27;20379;-74
2022/08/06 06:32:07;;;;;;;1999.90;999.90;;;16.40;99.90;;;;;;5097964;27;20035;-74
2022/08/06 06:34:50;;;;;;;1999.90;999.90;;;16.30;99.90;;;;;;5130584;27;20438;-74
2022/08/06 06:37:38;;;;;;;1999.90;999.90;;;16.60;99.90;;;;;;5133050;27;20095;-74
2022/08/06 06:40:37;;;;;;;1999.90;999.90;;;16.90;99.90;;;;;;5130059;27;20134;-74
2022/08/06 06:43:10;;;;;;;1999.90;999.90;;;17.10;99.90;;;;;;5022136;28;20046;-74
2022/08/06 06:45:56;;;;;;;1999.90;999.90;;;17.30;99.90;;;;;;5021141;28;20492;-74
2022/08/06 06:48:39;;;;;;;1999.90;999.90;;;17.40;99.90;;;;;;5025623;28;20116;-74
2022/08/06 06:51:10;;;;;;;1999.90;999.90;;;17.20;99.90;;;;;;5021806;28;20097;-74
2022/08/06 06:53:41;;;;;;;1999.90;999.90;;;17.60;99.90;;;;;;5002327;28;20187;-74
2022/08/06 06:56:09;;;;;;;1999.90;999.90;;;18.60;99.90;;;;;;5027620;28;20045;-74
2022/08/06 06:58:42;;;;;;;1999.90;999.90;;;19.50;99.90;;;;;;4994584;28;20056;-74
2022/08/06 07:01:11;;;;;;;1999.90;999.90;;;20.40;99.90;;;;;;5019402;28;20045;-75
2022/08/06 07:03:38;;;;;;;1999.90;999.90;;;21.20;99.90;;;;;;5017512;28;20441;-74
2022/08/06 07:06:08;;;;;;;1999.90;999.90;;;22.10;99.90;;;;;;5017422;28;20050;-74
2022/08/06 07:08:37;;;;;;;1999.90;999.90;;;22.90;99.90;;;;;;5026147;28;20044;-74
2022/08/06 07:11:06;;;;;;;1999.90;999.90;;;23.30;99.90;;;;;;5018393;28;20080;-75
2022/08/06 07:13:32;;;;;;;1999.90;999.90;;;23.60;99.10;;;;;;5023335;28;20060;-74
2022/08/06 07:15:59;;;;;;;1999.90;999.90;;;23.90;99.00;;;;;;5025310;28;20116;-74
2022/08/06 07:18:26;;;;;;;1999.90;999.90;;;24.10;98.80;;;;;;5030051;27;20060;-75
2022/08/06 07:20:54;;;;;;;1999.90;999.90;;;24.20;98.30;;;;;;5128248;27;20047;-75
2022/08/06 07:23:22;;;;;;;1999.90;999.90;;;24.30;96.10;;;;;;5131477;27;20096;-74
2022/08/06 07:25:49;;;;;;;1999.90;999.90;;;24.30;95.50;;;;;;5127993;27;20039;-74
2022/08/06 07:28:15;;;;;;;1999.90;999.90;;;24.20;94.70;;;;;;5131813;27;20134;-74
2022/08/06 07:30:43;;;;;;;1999.90;999.90;;;23.50;93.60;;;;;;5131430;27;20081;-74
2022/08/06 07:33:10;;;;;;;1999.90;999.90;;;22.70;97.30;;;;;;5125270;27;20054;-74
2022/08/06 07:35:42;;;;;;;1999.90;999.90;;;22.10;97.50;;;;;;5134097;27;20042;-74
2022/08/06 07:38:09;;;;;;;1999.90;999.90;;;21.70;98.00;;;;;;5130396;27;20045;-74
2022/08/06 07:40:50;;;;;;;1999.90;999.90;;;21.40;99.10;;;;;;5113161;27;20043;-74
2022/08/06 07:43:30;;;;;;;1999.90;999.90;;;21.10;97.70;;;;;;5125220;27;20495;-74
2022/08/06 07:45:58;;;;;;;1999.90;999.90;;;20.80;99.10;;;;;;5130665;27;20045;-74
2022/08/06 07:48:31;;;;;;;1999.90;999.90;;;20.50;97.70;;;;;;5131564;27;20030;-74
2022/08/06 07:50:59;;;;;;;1999.90;999.90;;;20.40;97.00;;;;;;5125460;27;20042;-73
2022/08/06 07:53:26;;;;;;;1999.90;999.90;;;20.20;98.10;;;;;;5110358;27;20057;-74
2022/08/06 07:55:52;;;;;;;1999.90;999.90;;;19.70;98.00;;;;;;5131198;27;20139;-74
2022/08/06 07:58:19;;;;;;;1999.90;999.90;;;19.30;98.50;;;;;;5127867;27;20031;-74
2022/08/06 08:00:47;;;;;;;1999.90;999.90;;;18.90;98.30;;;;;;5133629;27;20043;-74
2022/08/06 08:06:18;;;;;;;1999.90;999.90;;;18.40;99.10;;;;;;5129622;27;20051;-74
2022/08/06 08:08:55;;;;;;;1999.90;999.90;;;18.20;99.60;;;;;;5129807;27;20039;-73
2022/08/06 08:11:23;;;;;;;1999.90;999.90;;;18.00;99.90;;;;;;5128583;27;20035;-74
2022/08/06 08:13:50;;;;;;;1999.90;999.90;;;18.00;99.90;;;;;;5126809;27;20035;-73
2022/08/06 08:16:18;;;;;;;1999.90;999.90;;;18.00;99.90;;;;;;5131377;27;20034;-74
2022/08/06 08:18:44;;;;;;;1999.90;999.90;;;18.30;99.90;;;;;;5133162;27;20870;-74
2022/08/06 08:21:11;;;;;;;1999.90;999.90;;;18.60;99.90;;;;;;5107297;27;20117;-74
2022/08/06 08:23:38;;;;;;;1999.90;999.90;;;18.80;99.70;;;;;;5138865;27;20039;-74
2022/08/06 08:26:04;;;;;;;1999.90;999.90;;;19.00;99.10;;;;;;5143337;27;20047;-74
2022/08/06 08:28:31;;;;;;;1999.90;999.90;;;19.30;99.40;;;;;;5128958;27;20046;-74
2022/08/06 08:30:58;;;;;;;1999.90;999.90;;;19.40;99.20;;;;;;5138495;27;20046;-74
2022/08/06 08:33:25;;;;;;;1999.90;999.90;;;19.50;98.40;;;;;;5138515;27;20038;-73
2022/08/06 08:35:51;;;;;;;1999.90;999.90;;;19.80;98.20;;;;;;5122834;27;20050;-74
2022/08/06 08:38:18;;;;;;;1999.90;999.90;;;19.90;97.70;;;;;;5126400;27;20501;-73
2022/08/06 08:40:44;;;;;;;1999.90;999.90;;;19.80;97.50;;;;;;5128561;27;20043;-73
2022/08/06 08:43:13;;;;;;;1999.90;999.90;;;19.60;97.10;;;;;;5132454;27;20039;-74
2022/08/06 08:45:42;;;;;;;1999.90;999.90;;;19.40;97.10;;;;;;5107862;27;20054;-74
2022/08/06 08:48:12;;;;;;;1999.90;999.90;;;19.10;97.60;;;;;;5132628;27;20043;-74
2022/08/06 08:50:40;;;;;;;1999.90;999.90;;;18.90;97.60;;;;;;5131414;27;20091;-74
2022/08/06 08:53:09;;;;;;;1999.90;999.90;;;18.70;98.10;;;;;;5128989;27;20043;-73
2022/08/06 08:55:34;;;;;;;1999.90;999.90;;;18.60;97.80;;;;;;5137107;27;20035;-73
2022/08/06 08:58:01;;;;;;;1999.90;999.90;;;18.40;98.10;;;;;;5124970;27;20405;-73
2022/08/06 09:00:27;;;;;;;1999.90;999.90;;;18.30;98.70;;;;;;5130141;27;20035;-73
2022/08/06 09:02:53;;;;;;;1999.90;999.90;;;18.20;99.40;;;;;;5126165;27;20042;-73
2022/08/06 09:05:19;;;;;;;1999.90;999.90;;;18.10;99.90;;;;;;5129415;27;20152;-73
2022/08/06 09:07:46;;;;;;;1999.90;999.90;;;18.00;99.90;;;;;;5119406;27;20047;-73
2022/08/06 09:10:11;;;;;;;1999.90;999.90;;;17.90;99.90;;;;;;5109888;27;20510;-74
2022/08/06 09:12:37;;;;;;;1999.90;999.90;;;17.90;99.90;;;;;;5111503;27;20035;-74
2022/08/06 09:15:04;;;;;;;1999.90;999.90;;;17.90;99.90;;;;;;5118972;27;20502;-74
2022/08/06 09:17:30;;;;;;;1999.90;999.90;;;17.90;99.90;;;;;;5128987;27;20482;-73
2022/08/06 09:19:56;;;;;;;1999.90;999.90;;;18.00;99.90;;;;;;5139420;27;20132;-74
2022/08/06 09:22:21;;;;;;;1999.90;999.90;;;18.20;99.90;;;;;;5132083;27;20114;-73
2022/08/06 09:24:47;;;;;;;1999.90;999.90;;;18.70;99.90;;;;;;5111533;28;20046;-74
2022/08/06 09:27:17;;;;;;;1999.90;999.90;;;19.10;99.90;;;;;;5125455;27;20425;-73
2022/08/06 09:29:54;;;;;;;1999.90;999.90;;;20.10;99.90;;;;;;5133539;27;20038;-74
2022/08/06 09:32:42;;;;;;;1999.90;999.90;;;21.60;99.90;;;;;;5138362;27;20072;-74
2022/08/06 09:35:21;;;;;;;1999.90;999.90;;;22.80;97.00;;;;;;5135773;27;20142;-74
2022/08/06 09:37:48;;;;;;;1999.90;999.90;;;22.70;94.40;;;;;;5134042;27;20522;-74
2022/08/06 09:40:16;;;;;;;1999.90;999.90;;;22.20;96.20;;;;;;5113759;27;20062;-73
2022/08/06 09:42:46;;;;;;;1999.90;999.90;;;21.50;96.50;;;;;;5128136;27;20104;-74
2022/08/06 09:45:13;;;;;;;1999.90;999.90;;;20.70;97.00;;;;;;5117745;27;20069;-75
2022/08/06 09:47:39;;;;;;;1999.90;999.90;;;20.10;98.30;;;;;;5133803;27;20050;-75
2022/08/06 09:50:06;;;;;;;1999.90;999.90;;;19.70;98.60;;;;;;5126694;27;20393;-74
2022/08/06 09:52:32;;;;;;;1999.90;999.90;;;19.50;99.50;;;;;;5130906;27;20047;-75
2022/08/06 09:54:57;;;;;;;1999.90;999.90;;;19.30;99.30;;;;;;5121749;28;20376;-74
2022/08/06 09:57:25;;;;;;;1999.90;999.90;;;19.20;99.10;;;;;;5134691;27;20046;-74
2022/08/06 09:59:51;;;;;;;1999.90;999.90;;;19.10;99.50;;;;;;5136474;27;20483;-74
2022/08/06 10:02:19;;;;;;;1999.90;999.90;;;19.10;99.20;;;;;;5135580;27;20071;-74
2022/08/06 10:04:45;;;;;;;1999.90;999.90;;;19.10;99.10;;;;;;5136072;27;20385;-74
2022/08/06 10:07:11;;;;;;;1999.90;999.90;;;19.20;99.60;;;;;;5139204;27;20390;-74
2022/08/06 10:09:55;;;;;;;1999.90;999.90;;;19.40;99.70;;;;;;5107415;27;20058;-74
2022/08/06 10:12:22;;;;;;;1999.90;999.90;;;20.00;98.50;;;;;;5141829;27;20467;-74
2022/08/06 10:14:48;;;;;;;1999.90;999.90;;;20.90;98.80;;;;;;5135026;27;20050;-75
2022/08/06 10:17:17;;;;;;;1999.90;999.90;;;21.80;98.00;;;;;;5115360;27;20036;-74
2022/08/06 10:20:13;;;;;;;1999.90;999.90;;;22.40;94.60;;;;;;5118249;27;20051;-74
2022/08/06 10:22:54;;;;;;;1999.90;999.90;;;22.40;94.80;;;;;;5135165;27;20107;-74
2022/08/06 10:25:21;;;;;;;1999.90;999.90;;;22.10;94.10;;;;;;5130635;27;20039;-74
2022/08/06 10:27:48;;;;;;;1999.90;999.90;;;21.80;94.10;;;;;;5094775;27;20038;-74
2022/08/06 10:30:14;;;;;;;1999.90;999.90;;;21.60;93.70;;;;;;5113621;28;20039;-74
2022/08/06 10:32:58;;;;;;;1999.90;999.90;;;21.50;92.60;;;;;;5115223;27;20091;-74
2022/08/06 10:35:26;;;;;;;1999.90;999.90;;;21.60;93.40;;;;;;5089209;27;20049;-74
2022/08/06 10:38:03;;;;;;;1999.90;999.90;;;22.10;92.50;;;;;;5109133;27;20122;-74
2022/08/06 10:40:30;;;;;;;1999.90;999.90;;;22.30;91.70;;;;;;5130720;27;20400;-74
2022/08/06 10:42:56;;;;;;;1999.90;999.90;;;22.30;90.00;;;;;;5122409;27;20083;-74
2022/08/06 10:45:23;;;;;;;1999.90;999.90;;;22.20;89.00;;;;;;5109511;27;20038;-74
2022/08/06 10:47:49;;;;;;;1999.90;999.90;;;22.30;84.70;;;;;;5129480;27;20035;-75
2022/08/06 10:50:15;;;;;;;1999.90;999.90;;;22.50;86.10;;;;;;5127207;27;20549;-74
2022/08/06 10:52:42;;;;;;;1999.90;999.90;;;22.80;81.60;;;;;;5094099;27;20050;-74
2022/08/06 10:55:09;;;;;;;1999.90;999.90;;;22.80;83.20;;;;;;5110398;27;20110;-74
2022/08/06 10:57:37;;;;;;;1999.90;999.90;;;23.20;82.20;;;;;;5119944;27;20144;-74
2022/08/06 11:00:04;;;;;;;1999.90;999.90;;;23.50;80.20;;;;;;5117498;27;20050;-74
2022/08/06 11:02:42;;;;;;;1999.90;999.90;;;23.60;74.90;;;;;;5131419;27;20035;-74
2022/08/06 11:05:13;;;;;;;1999.90;999.90;;;23.30;74.00;;;;;;5122980;27;20039;-74
2022/08/06 11:08:30;;;;;;;1999.90;999.90;;;22.60;74.80;;;;;;5113318;27;20037;-74
2022/08/06 11:11:04;;;;;;;1999.90;999.90;;;22.00;76.80;;;;;;5060434;27;20051;-74
2022/08/06 11:13:53;;;;;;;1999.90;999.90;;;21.50;76.50;;;;;;5125007;27;20058;-74
2022/08/06 11:16:24;;;;;;;1999.90;999.90;;;21.20;76.90;;;;;;5105921;27;20050;-75
2022/08/06 11:19:08;;;;;;;1999.90;999.90;;;21.30;79.40;;;;;;5108793;27;20114;-75
2022/08/06 11:21:48;;;;;;;1999.90;999.90;;;21.90;79.90;;;;;;5100481;27;20040;-75
2022/08/06 11:24:15;;;;;;;1999.90;999.90;;;22.40;78.30;;;;;;5128054;27;20484;-75
2022/08/06 11:26:44;;;;;;;1999.90;999.90;;;22.80;75.80;;;;;;5103031;27;20038;-74
2022/08/06 11:29:12;;;;;;;1999.90;999.90;;;22.90;75.50;;;;;;5123383;27;20561;-75
2022/08/06 11:31:44;;;;;;;1999.90;999.90;;;22.80;74.70;;;;;;5103535;27;20055;-75
2022/08/06 11:34:13;;;;;;;1999.90;999.90;;;22.60;75.70;;;;;;5130630;27;20208;-75
2022/08/06 11:36:45;;;;;;;1999.90;999.90;;;22.50;75.00;;;;;;5127334;27;20035;-74
2022/08/06 11:39:11;;;;;;;1999.90;999.90;;;22.20;74.70;;;;;;5126377;27;20469;-74
2022/08/06 11:41:50;;;;;;;1999.90;999.90;;;22.10;76.00;;;;;;5126563;27;20122;-75
2022/08/06 11:44:23;;;;;;;1999.90;999.90;;;22.10;76.20;;;;;;5127928;27;20068;-75
2022/08/06 11:47:10;;;;;;;1999.90;999.90;;;22.10;76.00;;;;;;5113220;27;20433;-74
2022/08/06 11:49:47;;;;;;;1999.90;999.90;;;22.10;74.30;;;;;;5132662;27;20066;-74
2022/08/06 11:52:31;;;;;;;1999.90;999.90;;;21.80;74.50;;;;;;5131963;27;20053;-74
2022/08/06 11:55:00;;;;;;;1999.90;999.90;;;21.60;74.90;;;;;;5117801;27;20399;-74
2022/08/06 11:57:26;;;;;;;1999.90;999.90;;;21.60;77.00;;;;;;5114799;27;20050;-75
2022/08/06 11:59:54;;;;;;;1999.90;999.90;;;21.90;76.70;;;;;;5108198;27;20079;-75
2022/08/06 12:02:39;;;;;;;1999.90;999.90;;;22.30;76.20;;;;;;5124773;27;20144;-75
2022/08/06 12:05:05;;;;;;;1999.90;999.90;;;22.80;76.00;;;;;;5107666;27;20081;-74
2022/08/06 12:07:34;;;;;;;1999.90;999.90;;;23.00;72.80;;;;;;5106300;27;20581;-75
2022/08/06 12:10:05;;;;;;;1999.90;999.90;;;23.10;71.50;;;;;;5123234;27;20075;-75
2022/08/06 12:12:37;;;;;;;1999.90;999.90;;;23.10;71.30;;;;;;5123192;27;20078;-74
2022/08/06 12:15:12;;;;;;;1999.90;999.90;;;23.30;68.60;;;;;;5124291;27;20054;-75
2022/08/06 12:17:40;;;;;;;1999.90;999.90;;;23.40;69.70;;;;;;5136605;27;20055;-74
2022/08/06 12:20:07;;;;;;;1999.90;999.90;;;23.50;69.90;;;;;;5140138;27;20035;-75
2022/08/06 12:22:35;;;;;;;1999.90;999.90;;;23.60;70.10;;;;;;5131827;27;20145;-74